^^
MeteoGriva-Weather Station Historical Data
Daily Summary for August 3, 2020 Units:  English    Metric   Both
Daily Weekly Monthly Yearly Custom
  High: Low: Average:
Temperature: 54.5 °F 31.1 °F 39.7 °F
Dew Point: 31.8 °F 19.8 °F 25.2 °F
Humidity: 71.9% 37.3% 56%
Wind Speed: 0mph 0mph 0mph
Wind Gust: 2.5mph - -
Wind- -
Pressure: 30.4 in 30.1 in -
Precipitation: 0 in    
Historical Graphs
 
 
Tabular Data for August 3, 2020
Time Temperature Dew Point Pressure Wind Wind Speed Wind Gust Humidity Rainfall Rate (Hourly) solar
00:04 35.4 °F 22.5 °F 30.4 in Calm     58.8% 0 in 0 W/m2
00:09 35.1 °F 22.6 °F 30.4 in Calm     59.8% 0 in 0 W/m2
00:14 34.5 °F 22.1 °F 30.4 in Calm     60% 0 in 0 W/m2
00:19 34.5 °F 22.3 °F 30.4 in Calm     60.6% 0 in 0 W/m2
00:24 34.3 °F 22.5 °F 30.4 in Calm     61.7% 0 in 0 W/m2
00:29 34.2 °F 22.3 °F 30.4 in Calm     61.4% 0 in 0 W/m2
00:34 34 °F 21.7 °F 30.4 in Calm     60.6% 0 in 0 W/m2
00:39 34 °F 21 °F 30.4 in Calm     58.7% 0 in 0 W/m2
00:44 34.2 °F 20.7 °F 30.4 in Calm     57.4% 0 in 0 W/m2
00:49 34.3 °F 20.1 °F 30.4 in Calm     56% 0 in 0 W/m2
00:54 34.7 °F 19.8 °F 30.4 in Calm     54% 0 in 0 W/m2
00:59 34.7 °F 19.9 °F 30.4 in Calm     54.3% 0 in 0 W/m2
01:04 34.9 °F 20.1 °F 30.4 in Calm     54.4% 0 in 0 W/m2
01:09 35.1 °F 20.5 °F 30.4 in Calm     55.1% 0 in 0 W/m2
01:14 34.7 °F 21.2 °F 30.4 in Calm     57.2% 0 in 0 W/m2
01:19 34.7 °F 21.7 °F 30.4 in Calm     58.7% 0 in 0 W/m2
01:24 34.5 °F 22.1 °F 30.4 in Calm     59.9% 0 in 0 W/m2
01:29 34 °F 22.1 °F 30.4 in Calm     61% 0 in 0 W/m2
01:34 33.1 °F 21.6 °F 30.4 in Calm     62% 0 in 0 W/m2
01:39 33.1 °F 21.9 °F 30.4 in Calm     62.8% 0 in 0 W/m2
01:44 32.9 °F 21.9 °F 30.4 in Calm     63.4% 0 in 0 W/m2
01:49 32.9 °F 21.4 °F 30.4 in Calm     62.1% 0 in 0 W/m2
01:54 32.9 °F 21.2 °F 30.4 in Calm     61.9% 0 in 0 W/m2
01:59 32.7 °F 21.6 °F 30.4 in Calm     63% 0 in 0 W/m2
02:04 32.5 °F 21.7 °F 30.4 in Calm     64% 0 in 0 W/m2
02:09 32.4 °F 21.9 °F 30.4 in Calm     65.3% 0 in 0 W/m2
02:14 32 °F 22.1 °F 30.4 in Calm     66.7% 0 in 0 W/m2
02:19 32 °F 21.9 °F 30.4 in Calm     66% 0 in 0 W/m2
02:24 32 °F 21.9 °F 30.4 in Calm     65.8% 0 in 0 W/m2
02:29 32.2 °F 20.8 °F 30.4 in Calm     62.9% 0 in 0 W/m2
02:34 32.5 °F 20.1 °F 30.4 in Calm     59.7% 0 in 0 W/m2
02:39 32.5 °F 20.1 °F 30.3 in Calm     60% 0 in 0 W/m2
02:44 32.5 °F 20.1 °F 30.3 in Calm     60% 0 in 0 W/m2
02:49 32.4 °F 19.9 °F 30.3 in Calm     60% 0 in 0 W/m2
02:54 32 °F 19.9 °F 30.3 in Calm     60.4% 0 in 0 W/m2
02:59 32 °F 20.1 °F 30.3 in Calm     61% 0 in 0 W/m2
03:04 32 °F 20.5 °F 30.3 in Calm     61.8% 0 in 0 W/m2
03:09 31.8 °F 20.7 °F 30.3 in Calm     62.9% 0 in 0 W/m2
03:14 31.3 °F 20.7 °F 30.3 in Calm     64.7% 0 in 0 W/m2
03:19 31.5 °F 20.8 °F 30.3 in Calm     64.7% 0 in 0 W/m2
03:24 31.5 °F 20.7 °F 30.3 in Calm     64% 0 in 0 W/m2
03:29 31.5 °F 20.8 °F 30.3 in Calm     64.3% 0 in 0 W/m2
03:34 31.3 °F 21.4 °F 30.3 in Calm     66.5% 0 in 0 W/m2
03:39 31.3 °F 21.9 °F 30.3 in Calm     68.3% 0 in 0 W/m2
03:44 31.1 °F 22.3 °F 30.3 in Calm     69.7% 0 in 0 W/m2
03:49 31.1 °F 21.9 °F 30.3 in Calm     68.4% 0 in 0 W/m2
03:54 32 °F 22.1 °F 30.3 in Calm     66.6% 0 in 0 W/m2
03:59 32.2 °F 21.4 °F 30.3 in Calm     64% 0 in 0 W/m2
04:04 32.2 °F 20.8 °F 30.3 in Calm     62.5% 0 in 0 W/m2
04:09 32.2 °F 20.5 °F 30.3 in Calm     61.4% 0 in 0 W/m2
04:14 32.4 °F 20.3 °F 30.3 in Calm     60.4% 0 in 0 W/m2
04:19 32.4 °F 21.4 °F 30.3 in Calm     63.3% 0 in 0 W/m2
04:24 32.2 °F 22.1 °F 30.3 in Calm     65.8% 0 in 0 W/m2
04:29 32 °F 21.9 °F 30.3 in Calm     66% 0 in 0 W/m2
04:34 32 °F 22.1 °F 30.3 in Calm     66.3% 0 in 0 W/m2
04:39 32 °F 21.9 °F 30.3 in Calm     66% 0 in 0 W/m2
04:44 32 °F 22.5 °F 30.3 in Calm     67.3% 0 in 0 W/m2
04:49 31.8 °F 23 °F 30.3 in Calm     69.2% 0 in 0 W/m2
04:54 31.5 °F 22.5 °F 30.3 in Calm     69.3% 0 in 0 W/m2
04:59 31.3 °F 22.5 °F 30.3 in Calm     69.7% 0 in 0 W/m2
05:04 31.5 °F 22.5 °F 30.3 in Calm     68.9% 0 in 0 W/m2
05:09 31.5 °F 21.9 °F 30.3 in Calm     67.6% 0 in 0 W/m2
05:14 32 °F 22.6 °F 30.3 in Calm     68.1% 0 in 0 W/m2
05:19 32 °F 23.2 °F 30.3 in Calm     69.6% 0 in 0 W/m2
05:24 32 °F 23.5 °F 30.3 in Calm     70.3% 0 in 0 W/m2
05:29 31.8 °F 23.9 °F 30.3 in Calm     71.9% 0 in 0 W/m2
05:34 31.6 °F 23.5 °F 30.3 in Calm     71.1% 0 in 0 W/m2
05:39 31.8 °F 22.5 °F 30.3 in Calm     68% 0 in 0 W/m2
05:44 32 °F 21.2 °F 30.3 in Calm     64% 0 in 0 W/m2
05:49 32.2 °F 21.2 °F 30.3 in Calm     63.8% 0 in 0 W/m2
05:54 33.3 °F 22.3 °F 30.3 in Calm     63.4% 0 in 0 W/m2
05:59 33.6 °F 22.8 °F 30.3 in Calm     64% 0 in 0 W/m2
06:04 33.4 °F 22.6 °F 30.3 in Calm     64% 0 in 0 W/m2
06:09 33.4 °F 22.1 °F 30.3 in Calm     62.6% 0 in 0 W/m2
06:14 33.4 °F 22.1 °F 30.3 in Calm     62.6% 0 in 0 W/m2
06:19 33.4 °F 22.5 °F 30.3 in Calm     63.3% 0 in 0 W/m2
06:24 33.4 °F 22.8 °F 30.3 in Calm     64.7% 0 in 0 W/m2
06:29 33.3 °F 22.3 °F 30.3 in Calm     63.3% 0 in 0 W/m2
06:34 32.9 °F 23 °F 30.3 in Calm     66.2% 0 in 0 W/m2
06:39 32.7 °F 23.4 °F 30.3 in Calm     68% 0 in 0 W/m2
06:44 32.7 °F 23.4 °F 30.3 in Calm     68% 0 in 0 W/m2
06:49 32.7 °F 23.4 °F 30.3 in Calm     68.1% 0 in 0 W/m2
06:54 32.5 °F 23.7 °F 30.3 in Calm     69.6% 0 in 0 W/m2
06:59 32.4 °F 23.7 °F 30.3 in Calm     70% 0 in 0 W/m2
07:04 32.4 °F 23.7 °F 30.3 in Calm     70% 0 in 0 W/m2
07:09 32.4 °F 23.7 °F 30.3 in Calm     70% 0 in 0 W/m2
07:14 32.2 °F 23.5 °F 30.3 in Calm     70% 0 in 0 W/m2
07:19 32 °F 23.4 °F 30.3 in Calm     70% 0 in 0 W/m2
07:24 32 °F 23 °F 30.3 in Calm     69% 0 in 0 W/m2
07:29 32 °F 23 °F 30.3 in Calm     68.9% 0 in 0 W/m2
07:34 32 °F 22.6 °F 30.3 in Calm     68% 0 in 0 W/m2
07:39 32 °F 23 °F 30.3 in Calm     68.9% 0 in 0 W/m2
07:44 32 °F 22.8 °F 30.3 in Calm     68.4% 0 in 0 W/m2
07:49 32.2 °F 22.6 °F 30.3 in Calm     68% 0 in 0 W/m2
07:54 32.5 °F 23 °F 30.3 in Calm     67.7% 0 in 0 W/m2
07:59 32.9 °F 23.5 °F 30.3 in Calm     68% 0 in 0 W/m2
08:04 32.9 °F 23.7 °F 30.3 in Calm     68.5% 0 in 3 W/m2
08:09 32.9 °F 23.4 °F 30.3 in Calm     67.4% 0 in 6 W/m2
08:14 33.8 °F 23.9 °F 30.3 in Calm     67% 0 in 8 W/m2
08:19 34.2 °F 24.4 °F 30.3 in Calm     67% 0 in 12 W/m2
08:24 34.2 °F 24.4 °F 30.3 in Calm     67.4% 0 in 17 W/m2
08:29 34.2 °F 24.6 °F 30.3 in Calm     67.6% 0 in 20 W/m2
08:34 34.5 °F 25 °F 30.3 in Calm     68% 0 in 21 W/m2
08:39 34.5 °F 25 °F 30.3 in Calm     68% 0 in 23 W/m2
08:44 34.5 °F 25 °F 30.3 in Calm     68% 0 in 26 W/m2
08:49 34.5 °F 24.6 °F 30.3 in Calm     67.2% 0 in 30 W/m2
08:54 34.5 °F 24.8 °F 30.3 in Calm     67.3% 0 in 33 W/m2
08:59 34.7 °F 25.2 °F 30.3 in Calm     68% 0 in 36 W/m2
09:04 34.7 °F 25 °F 30.3 in Calm     67.5% 0 in 41 W/m2
09:09 34.9 °F 25 °F 30.3 in Calm     67% 0 in 46 W/m2
09:14 35.4 °F 25.3 °F 30.3 in Calm     66.2% 0 in 52 W/m2
09:19 36.1 °F 25.5 °F 30.3 in Calm     65.2% 0 in 57 W/m2
09:24 36.1 °F 25.2 °F 30.3 in Calm     63.8% 0 in 66 W/m2
09:29 36.3 °F 24.8 °F 30.3 in Calm     62.3% 0 in 72 W/m2
09:34 37.4 °F 25.7 °F 30.3 in Calm     62% 0 in 73 W/m2
09:39 38.3 °F 26.8 °F 30.3 in Calm     63% 0 in 71 W/m2
09:44 38.3 °F 26.4 °F 30.3 in Calm     62% 0 in 80 W/m2
09:49 38.5 °F 26.6 °F 30.3 in Calm     62.1% 0 in 89 W/m2
09:54 38.7 °F 27.1 °F 30.3 in Calm     62.9% 0 in 102 W/m2
09:59 39.2 °F 27.1 °F 30.3 in Calm     61.2% 0 in 105 W/m2
10:04 39.2 °F 26.6 °F 30.3 in Calm     60.2% 0 in 96 W/m2
10:09 39.4 °F 27 °F 30.3 in Calm     60.9% 0 in 97 W/m2
10:14 39.7 °F 27.1 °F 30.3 in Calm     60.2% 0 in 97 W/m2
10:19 40.5 °F 27.7 °F 30.3 in Calm     60% 0 in 110 W/m2
10:24 40.3 °F 28 °F 30.3 in Calm     61.3% 0 in 105 W/m2
10:29 40.1 °F 28.6 °F 30.3 in Calm     62.9% 0 in 131 W/m2
10:34 40.3 °F 28.2 °F 30.3 in Calm     61.9% 0 in 139 W/m2
10:39 40.6 °F 28.2 °F 30.3 in Calm     61% 0 in 147 W/m2
10:44 40.6 °F 28.2 °F 30.3 in Calm     60.9% 0 in 168 W/m2
10:49 40.8 °F 28 °F 30.3 in Calm     59.8% 0 in 185 W/m2
10:54 41 °F 28.2 °F 30.3 in Calm     60% 0 in 150 W/m2
10:59 41 °F 28.4 °F 30.3 in Calm     60.6% 0 in 189 W/m2
11:04 41.2 °F 28.4 °F 30.3 in Calm     59.9% 0 in 240 W/m2
11:09 41.4 °F 28.2 °F 30.3 in Calm     59.4% 0 in 286 W/m2
11:14 42.3 °F 28.6 °F 30.3 in Calm     57.7% 0 in 300 W/m2
11:19 44.4 °F 30.2 °F 30.3 in Calm     57.1% 0 in 325 W/m2
11:24 44.6 °F 29.8 °F 30.3 in Calm     56% 0 in 319 W/m2
11:29 45 °F 30 °F 30.3 in Calm     55.9% 0 in 336 W/m2
11:34 45.3 °F 30.6 °F 30.3 in Calm     55.8% 0 in 334 W/m2
11:39 46 °F 30.9 °F 30.3 in Calm     55.2% 0 in 332 W/m2
11:44 46 °F 30.9 °F 30.3 in Calm     55.2% 0 in 340 W/m2
11:49 46.2 °F 30.9 °F 30.3 in Calm     54.9% 0 in 347 W/m2
11:54 46.6 °F 30.2 °F 30.3 in Calm     53% 0 in 351 W/m2
11:59 46.8 °F 31.1 °F 30.3 in Calm     54.6% 0 in 353 W/m2
12:04 46.6 °F 31.6 °F 30.3 in Calm     56% 0 in 356 W/m2
12:09 46.6 °F 31.1 °F 30.3 in Calm     54.9% 0 in 354 W/m2
12:14 46.4 °F 31.8 °F 30.3 in Calm     56.8% 0 in 353 W/m2
12:19 45.1 °F 30.6 °F 30.3 in Calm     56.4% 0 in 355 W/m2
12:24 45.3 °F 29.8 °F 30.3 in Calm     54.1% 0 in 356 W/m2
12:29 45.9 °F 29.3 °F 30.3 in Calm     52.1% 0 in 356 W/m2
12:34 46.8 °F 28.8 °F 30.3 in Calm     49.3% 0 in 356 W/m2
12:39 48.9 °F 30.9 °F 30.3 in Calm     49.7% 0 in 356 W/m2
12:44 48.7 °F 31.6 °F 30.3 in Calm     51.4% 0 in 357 W/m2
12:49 48.7 °F 30.9 °F 30.2 in Calm     50.1% 0 in 357 W/m2
12:54 48.7 °F 30.7 °F 30.2 in Calm     49.7% 0 in 358 W/m2
12:59 50.9 °F 31.8 °F 30.2 in Calm     47.7% 0 in 358 W/m2
13:04 50.7 °F 31.8 °F 30.2 in Calm     48.1% 0 in 356 W/m2
13:09 50.5 °F 31.6 °F 30.2 in Calm     48% 0 in 355 W/m2
13:14 50.5 °F 30.9 °F 30.2 in Calm     46.5% 0 in 355 W/m2
13:19 50.5 °F 31.1 °F 30.2 in Calm     46.8% 0 in 354 W/m2
13:24 50.5 °F 31.3 °F 30.2 in Calm     47.4% 0 in 352 W/m2
13:29 50.7 °F 30.6 °F 30.2 in Calm     45.7% 0 in 349 W/m2
13:34 50.9 °F 30.2 °F 30.2 in Calm     44.8% 0 in 350 W/m2
13:39 51.6 °F 30.9 °F 30.2 in Calm     44.9% 0 in 349 W/m2
13:44 51.8 °F 30.4 °F 30.2 in Calm     43.7% 0 in 349 W/m2
13:49 52 °F 30.2 °F 30.2 in Calm     43.1% 0 in 347 W/m2
13:54 52.2 °F 29.7 °F 30.2 in Calm     41.9% 0 in 345 W/m2
13:59 53.1 °F 30 °F 30.2 in Calm     40.8% 0 in 343 W/m2
14:04 53.4 °F 30 °F 30.2 in Calm     40.6% 0 in 342 W/m2
14:09 53.4 °F 29.7 °F 30.2 in Calm     40% 0 in 340 W/m2
14:14 53.4 °F 29.7 °F 30.2 in Calm     39.8% 0 in 339 W/m2
14:19 53.4 °F 30 °F 30.2 in Calm     40.3% 0 in 337 W/m2
14:24 53.4 °F 29.7 °F 30.2 in Calm     39.8% 0 in 334 W/m2
14:29 53.6 °F 29.3 °F 30.2 in Calm     39.1% 0 in 331 W/m2
14:34 53.4 °F 29.1 °F 30.2 in Calm     39% 0 in 327 W/m2
14:39 52.9 °F 28.2 °F 30.2 in Calm   2.5 mph 38.2% 0 in 323 W/m2
14:44 52.7 °F 28.2 °F 30.2 in Calm     38.7% 0 in 320 W/m2
14:49 52.7 °F 28.2 °F 30.2 in Calm     38.4% 0 in 316 W/m2
14:54 52.9 °F 28.4 °F 30.2 in Calm     38.4% 0 in 313 W/m2
14:59 54 °F 29.1 °F 30.2 in Calm     38.3% 0 in 307 W/m2
15:04 54 °F 29.3 °F 30.2 in Calm     38.8% 0 in 302 W/m2
15:09 54.1 °F 28.6 °F 30.2 in Calm     37.3% 0 in 299 W/m2
15:14 54.1 °F 29.5 °F 30.2 in Calm     38.6% 0 in 291 W/m2
15:19 54.5 °F 29.5 °F 30.2 in Calm     38% 0 in 285 W/m2
15:24 54.5 °F 30 °F 30.2 in Calm     39% 0 in 274 W/m2
15:29 54.5 °F 29.5 °F 30.2 in Calm     38.2% 0 in 268 W/m2
15:34 54 °F 31.1 °F 30.2 in Calm     41.5% 0 in 39 W/m2
15:39 49.6 °F 28.4 °F 30.2 in Calm     43.4% 0 in 36 W/m2
15:44 48.6 °F 28.2 °F 30.2 in Calm     45.1% 0 in 33 W/m2
15:49 48.2 °F 28.8 °F 30.2 in Calm     46.6% 0 in 31 W/m2
15:54 47.8 °F 28.4 °F 30.2 in Calm     46.7% 0 in 30 W/m2
15:59 45.9 °F 27.5 °F 30.2 in Calm     48.4% 0 in 28 W/m2
16:04 45.1 °F 27.7 °F 30.2 in Calm     49.9% 0 in 27 W/m2
16:09 45 °F 27.9 °F 30.2 in Calm     50.8% 0 in 25 W/m2
16:14 44.8 °F 28 °F 30.2 in Calm     51.7% 0 in 23 W/m2
16:19 43.7 °F 27.3 °F 30.2 in Calm     52% 0 in 22 W/m2
16:24 43.3 °F 27 °F 30.2 in Calm     52% 0 in 20 W/m2
16:29 43.3 °F 27.1 °F 30.2 in Calm     52.7% 0 in 19 W/m2
16:34 43.2 °F 27.1 °F 30.2 in Calm     53% 0 in 18 W/m2
16:39 42.8 °F 27.1 °F 30.2 in Calm     53.6% 0 in 14 W/m2
16:44 42.6 °F 27.1 °F 30.2 in Calm     54% 0 in 12 W/m2
16:49 42.6 °F 27.1 °F 30.2 in Calm     54% 0 in 10 W/m2
16:54 42.4 °F 27.3 °F 30.2 in Calm     54.7% 0 in 8 W/m2
16:59 41.7 °F 26.8 °F 30.2 in Calm     55.3% 0 in 6 W/m2
17:04 41 °F 26.2 °F 30.2 in Calm     55.6% 0 in 5 W/m2
17:09 41.2 °F 26.1 °F 30.2 in Calm     54.3% 0 in 3 W/m2
17:14 41.2 °F 26.1 °F 30.2 in Calm     54.3% 0 in 0 W/m2
17:19 41.4 °F 26.1 °F 30.2 in Calm     54.3% 0 in 0 W/m2
17:24 41.5 °F 26.4 °F 30.2 in Calm     54.7% 0 in 0 W/m2
17:29 41.4 °F 26.2 °F 30.2 in Calm     54.4% 0 in 0 W/m2
17:34 41.5 °F 26.1 °F 30.2 in Calm     54% 0 in 0 W/m2
17:39 41.2 °F 26.2 °F 30.2 in Calm     54.9% 0 in 0 W/m2
17:44 41 °F 26.1 °F 30.2 in Calm     55% 0 in 0 W/m2
17:49 41 °F 26.1 °F 30.2 in Calm     55% 0 in 0 W/m2
17:54 41 °F 25.7 °F 30.2 in Calm     54% 0 in 0 W/m2
17:59 41 °F 25.5 °F 30.2 in Calm     53.7% 0 in 0 W/m2
18:04 41 °F 25.9 °F 30.2 in Calm     54.4% 0 in 0 W/m2
18:09 41 °F 25.3 °F 30.2 in Calm     53.1% 0 in 0 W/m2
18:14 41.2 °F 24.6 °F 30.2 in Calm     51.6% 0 in 0 W/m2
18:19 41.5 °F 24.4 °F 30.2 in Calm     50.4% 0 in 0 W/m2
18:24 42.1 °F 25 °F 30.2 in Calm     50.4% 0 in 0 W/m2
18:29 41.9 °F 25.2 °F 30.2 in Calm     51% 0 in 0 W/m2
18:34 41.9 °F 25.2 °F 30.2 in Calm     51% 0 in 0 W/m2
18:39 41.9 °F 24.8 °F 30.2 in Calm     50.3% 0 in 0 W/m2
18:44 42.1 °F 24.4 °F 30.2 in Calm   2.5 mph 49.3% 0 in 0 W/m2
18:49 42.1 °F 23.2 °F 30.2 in Calm     46.8% 0 in 0 W/m2
18:54 42.3 °F 23.5 °F 30.2 in Calm     47.3% 0 in 0 W/m2
18:59 42.4 °F 23.7 °F 30.2 in Calm     47.2% 0 in 0 W/m2
19:04 42.8 °F 23.7 °F 30.2 in Calm     46.7% 0 in 0 W/m2
19:09 42.8 °F 24.3 °F 30.2 in Calm     47.9% 0 in 0 W/m2
19:14 42.6 °F 24.3 °F 30.2 in Calm     48% 0 in 0 W/m2
19:19 42.4 °F 25 °F 30.2 in Calm     49.7% 0 in 0 W/m2
19:24 41.9 °F 25.5 °F 30.2 in Calm     52% 0 in 0 W/m2
19:29 41.7 °F 25.7 °F 30.2 in Calm     52.7% 0 in 0 W/m2
19:34 41.5 °F 25.5 °F 30.2 in Calm     52.6% 0 in 0 W/m2
19:39 41.2 °F 25 °F 30.2 in Calm     52% 0 in 0 W/m2
19:44 41 °F 23.9 °F 30.2 in Calm     50.3% 0 in 0 W/m2
19:49 41 °F 23.7 °F 30.2 in Calm     50% 0 in 0 W/m2
19:54 41.2 °F 24.3 °F 30.2 in Calm     50.6% 0 in 0 W/m2
19:59 41 °F 24.8 °F 30.2 in Calm     52% 0 in 0 W/m2
20:04 40.8 °F 24.8 °F 30.2 in Calm     52.4% 0 in 0 W/m2
20:09 40.8 °F 24.8 °F 30.2 in Calm     52.6% 0 in 0 W/m2
20:14 40.6 °F 25 °F 30.2 in Calm     53.4% 0 in 0 W/m2
20:19 40.6 °F 24.8 °F 30.2 in Calm     52.8% 0 in 0 W/m2
20:24 41 °F 24.8 °F 30.2 in Calm     52% 0 in 0 W/m2
20:29 40.8 °F 25.2 °F 30.2 in Calm     53% 0 in 0 W/m2
20:34 40.8 °F 24.8 °F 30.2 in Calm     52.5% 0 in 0 W/m2
20:39 40.8 °F 24.6 °F 30.2 in Calm     51.8% 0 in 0 W/m2
20:44 41 °F 23.9 °F 30.2 in Calm     50.4% 0 in 0 W/m2
20:49 41 °F 23.7 °F 30.2 in Calm     50% 0 in 0 W/m2
20:54 41 °F 23.7 °F 30.2 in Calm     49.7% 0 in 0 W/m2
20:59 41.4 °F 23.5 °F 30.2 in Calm     49% 0 in 0 W/m2
21:04 41.7 °F 24.1 °F 30.2 in Calm     49.4% 0 in 0 W/m2
21:09 41.5 °F 24.8 °F 30.2 in Calm     50.9% 0 in 0 W/m2
21:14 41.4 °F 25 °F 30.2 in Calm     52% 0 in 0 W/m2
21:19 41.2 °F 24.4 °F 30.2 in Calm     51.1% 0 in 0 W/m2
21:24 40.6 °F 23.5 °F 30.2 in Calm     50.1% 0 in 0 W/m2
21:29 40.6 °F 24.3 °F 30.2 in Calm     51.9% 0 in 0 W/m2
21:34 40.5 °F 24.3 °F 30.2 in Calm     52% 0 in 0 W/m2
21:39 40.5 °F 23.9 °F 30.2 in Calm     51.4% 0 in 0 W/m2
21:44 40.3 °F 23.5 °F 30.2 in Calm     51% 0 in 0 W/m2
21:49 40.3 °F 23.5 °F 30.2 in Calm     51.1% 0 in 0 W/m2
21:54 40.3 °F 23.5 °F 30.2 in Calm     51% 0 in 0 W/m2
21:59 40.3 °F 23.5 °F 30.2 in Calm     51% 0 in 0 W/m2
22:04 39.9 °F 23 °F 30.2 in Calm     50.7% 0 in 0 W/m2
22:09 39.9 °F 23 °F 30.2 in Calm     50.4% 0 in 0 W/m2
22:14 39.9 °F 23.2 °F 30.2 in Calm     51% 0 in 0 W/m2
22:19 39.9 °F 23.7 °F 30.2 in Calm     52% 0 in 0 W/m2
22:24 40.1 °F 23.9 °F 30.2 in Calm     52% 0 in 0 W/m2
22:29 40.1 °F 23.4 °F 30.2 in Calm     50.9% 0 in 0 W/m2
22:34 40.3 °F 23.4 °F 30.2 in Calm     50.6% 0 in 0 W/m2
22:39 40.3 °F 23.5 °F 30.2 in Calm     51% 0 in 0 W/m2
22:44 40.5 °F 23.7 °F 30.2 in Calm     50.9% 0 in 0 W/m2
22:49 40.6 °F 22.8 °F 30.2 in Calm     48.7% 0 in 0 W/m2
22:54 40.8 °F 22.6 °F 30.2 in Calm     48% 0 in 0 W/m2
22:59 41.2 °F 23.4 °F 30.2 in Calm     48.8% 0 in 0 W/m2
23:04 41.5 °F 24.1 °F 30.2 in Calm     49.7% 0 in 0 W/m2
23:09 41.4 °F 24.4 °F 30.1 in Calm     50.6% 0 in 0 W/m2
23:14 41.4 °F 24.1 °F 30.1 in Calm     50% 0 in 0 W/m2
23:19 41.4 °F 24.1 °F 30.2 in Calm     50% 0 in 0 W/m2
23:24 41.7 °F 24.1 °F 30.2 in Calm     49.2% 0 in 0 W/m2
23:29 41.9 °F 24.1 °F 30.2 in Calm     49.2% 0 in 0 W/m2
23:34 41.7 °F 24.3 °F 30.2 in Calm     49.9% 0 in 0 W/m2
23:39 41.7 °F 23.9 °F 30.1 in Calm     49% 0 in 0 W/m2
23:44 41.7 °F 24.1 °F 30.1 in Calm     49.3% 0 in 0 W/m2
23:49 41.7 °F 24.4 °F 30.1 in Calm     50% 0 in 0 W/m2
23:54 41.5 °F 24.3 °F 30.1 in Calm     50% 0 in 0 W/m2
23:59 41.5 °F 24.3 °F 30.1 in Calm     50% 0 in 0 W/m2
Juneau County Weather
Compliments of Weather Underground - 2 mb